Georgetown, IN (47122)

4:54 PM EDT on May 22, 2017 (GMT -0400)
Floyd County Road Department | | Change Station

Elev 726 ft 38.29 °N, 85.93 °W | Updated 8 hours ago

Clear
Clear
54.9 °F
Feels Like 54.9 °F
N
0.0
Wind Variable Wind from East
Gusts 9.0 mph

Today
High -- | Low -- °F
--% Chance of Precip.
Yesterday
High -- | Low -- °F
Precip. -- in
Pressure 30.06 in
Visibility 10.0 miles
Clouds Overcast 25000 ft
Dew Point 53 °F
Humidity 92%
Rainfall 0.00 in
Snow Depth Not available.
6:27 AM 8:54 PM
Waning Crescent, 13% visible
METAR KSDF 221956Z 18006KT 10SM R35R/5000VP6000FT OVC250 21/08 A3006 RMK AO2 SLP178 T02110083
Pressure 30.06 in
Visibility 10.0 miles
Clouds Overcast 25000 ft
Dew Point 53 °F
Humidity 92%
Rainfall 0.00 in
Snow Depth Not available.
6:27 AM 8:54 PM
Waning Crescent, 13% visible
METAR KSDF 221956Z 18006KT 10SM R35R/5000VP6000FT OVC250 21/08 A3006 RMK AO2 SLP178 T02110083

Get Severe Weather Alerts

Thanks for signing up!

Be on the lookout for a verification email in your inbox.

You'll start receiving the daily forecast at 6 AM.

×

10-Day Weather Forecast

Almanac

Astronomy

May. 22, 2017 Rise Set
Actual Time
Civil Twilight
Nautical Twilight
Astronomical Twilight
Moon
Length of Visible Light
Length of Day
Tomorrow will be .
, % of the Moon is Illuminated

Today's Extremes

State Highs State Lows

Community

WunderPhotos

Category 6

Welcome to Category 6. This is the collective home for Weather Underground's featured writeups by Dr. Jeff Masters (right), Bob Henson (left), Chris Burt, and other regular contributors.

Nearby

Air Quality

  Air Quality AQ Index Pollutant
Not available.

Snow Depth

Station Depth Elevation

Earthquake Activity

City Distance Mag. Time & Date
Minimum magnitude displayed is 2.5.

Coastal Water Temperatures

Place Temperature

Stations

Nearby Weather Stations

Station Location Temp. Windchill Dew Point Humidity Wind Precip. Elev Updated Type
                   

Watches & Warnings

There are currently no watches in effect.